Ana Sayfa
METAR-TAF:

METAR-TAF

Havaalanları :

Binghamton, New York, Amerika Birleşik Devletleri

Enlem: 42-12-28N, Boylam: 075-58-53W, yükseklik: 496 m

Güncel hava durumu gözlemi

Rapor saat 05:53 UTC de 28 dakika önce yapıldı.
Rüzgar batıdan 6 kt
Sıcaklık -9°C
Nem 79%
Basınç 1027 hPa
Görüş mesafesi: 16.1 km
Açık gökyüzü

METAR: KBGM 220553Z AUTO 27006KT 10SM CLR M09/M12 A3033 RMK AO2 SLP298 T10891117 11061 21089 58009

Saat: 01:21 (06:21 UTC)

Tahmin

Rapor saat 05:54 UTC de 27 dakika önce yapıldı.
Ayın 22'si saat 06 UTC'den ayın 23'si saat 06 UTC'ye kadar geçerli Tahmin
Rüzgar batı/güneybatıdan 4 kt
Görüş mesafesi: 10 km
Açık gökyüzü
Ayın 22'si saat 1300 UTC'den
Rüzgar güneydan 6 kt
Görüş mesafesi: 10 km
18000 ft yükseklikte parçalı bulutlu

TAF: KBGM 220554Z 2206/2306 24004KT P6SM SKC FM221300 19006KT P6SM SCT180

4.000'den fazla havaalanı için hava durumu gözlemleri ve tahminleri (METAR ve TAF raporları).

Kullanılabilir istasyonlar harita üzerinde sarı ve kırmızı noktalarla gösterilir.

İstasyonun adını görmek için fareyi noktanın üzerinde gezdirin.

Sonrasında hava gözlem ve tahminlerini görmek için tıklayın.

Haritayı değiştirmek için: yaklaştırmak için siyah artı işaretli yeşil düğmeye ve uzaklaştırmak için de eksi işaretli düğmeye hızla tıklayın; bitişik haritalar için yeşil okları kullanın.


METAR-TAF: